sensor_id;sensor_type;location;lat;lon;timestamp;temperature;humidity
30385;DHT22;17181;51.002;4.096;2024-03-25T06:23:30;6.00;99.90
30385;DHT22;17181;51.002;4.096;2024-03-25T06:25:59;6.10;99.90
30385;DHT22;17181;51.002;4.096;2024-03-25T06:28:25;6.20;99.90
30385;DHT22;17181;51.002;4.096;2024-03-25T06:31:14;6.20;99.90
30385;DHT22;17181;51.002;4.096;2024-03-25T06:33:58;6.40;99.90
30385;DHT22;17181;51.002;4.096;2024-03-25T06:36:46;6.40;99.90
30385;DHT22;17181;51.002;4.096;2024-03-25T06:39:16;6.40;99.90
30385;DHT22;17181;51.002;4.096;2024-03-25T06:41:45;6.50;99.90
30385;DHT22;17181;51.002;4.096;2024-03-25T06:44:11;6.60;99.90
30385;DHT22;17181;51.002;4.096;2024-03-25T06:46:38;6.60;99.90
30385;DHT22;17181;51.002;4.096;2024-03-25T06:49:04;6.70;99.90
30385;DHT22;17181;51.002;4.096;2024-03-25T06:51:31;6.70;99.90
30385;DHT22;17181;51.002;4.096;2024-03-25T06:53:59;6.80;99.90
30385;DHT22;17181;51.002;4.096;2024-03-25T06:56:28;6.80;99.90
30385;DHT22;17181;51.002;4.096;2024-03-25T06:58:55;6.90;99.90
30385;DHT22;17181;51.002;4.096;2024-03-25T07:01:24;6.90;99.90
30385;DHT22;17181;51.002;4.096;2024-03-25T07:03:53;7.00;99.90
30385;DHT22;17181;51.002;4.096;2024-03-25T07:06:20;6.90;99.90
30385;DHT22;17181;51.002;4.096;2024-03-25T07:08:49;7.00;99.90
30385;DHT22;17181;51.002;4.096;2024-03-25T07:11:15;7.00;99.90
30385;DHT22;17181;51.002;4.096;2024-03-25T07:13:43;7.10;99.90
30385;DHT22;17181;51.002;4.096;2024-03-25T07:19:14;7.30;99.90
30385;DHT22;17181;51.002;4.096;2024-03-25T07:21:42;7.40;99.90
30385;DHT22;17181;51.002;4.096;2024-03-25T07:24:08;7.40;99.90
30385;DHT22;17181;51.002;4.096;2024-03-25T07:26:34;7.50;99.90
30385;DHT22;17181;51.002;4.096;2024-03-25T07:29:07;7.60;99.90
30385;DHT22;17181;51.002;4.096;2024-03-25T07:31:33;7.70;99.90
30385;DHT22;17181;51.002;4.096;2024-03-25T07:34:00;7.70;99.90
30385;DHT22;17181;51.002;4.096;2024-03-25T07:36:26;7.80;99.90
30385;DHT22;17181;51.002;4.096;2024-03-25T07:38:54;7.80;99.90
30385;DHT22;17181;51.002;4.096;2024-03-25T07:41:22;7.90;99.90
30385;DHT22;17181;51.002;4.096;2024-03-25T07:43:50;8.00;99.90
30385;DHT22;17181;51.002;4.096;2024-03-25T07:46:17;8.00;99.90
30385;DHT22;17181;51.002;4.096;2024-03-25T07:48:43;8.10;99.90
30385;DHT22;17181;51.002;4.096;2024-03-25T07:51:10;8.10;99.90
30385;DHT22;17181;51.002;4.096;2024-03-25T07:53:50;8.20;99.90
30385;DHT22;17181;51.002;4.096;2024-03-25T07:56:17;8.20;99.90
30385;DHT22;17181;51.002;4.096;2024-03-25T07:58:45;8.30;99.90
30385;DHT22;17181;51.002;4.096;2024-03-25T08:01:12;8.30;99.90
30385;DHT22;17181;51.002;4.096;2024-03-25T08:03:39;8.40;99.90
30385;DHT22;17181;51.002;4.096;2024-03-25T08:06:11;8.50;99.90
30385;DHT22;17181;51.002;4.096;2024-03-25T08:08:44;8.50;99.90
30385;DHT22;17181;51.002;4.096;2024-03-25T08:11:35;8.50;99.90
30385;DHT22;17181;51.002;4.096;2024-03-25T08:14:11;8.50;99.90
30385;DHT22;17181;51.002;4.096;2024-03-25T08:16:51;8.60;99.90
30385;DHT22;17181;51.002;4.096;2024-03-25T12:02:24;13.80;99.90
30385;DHT22;17181;51.002;4.096;2024-03-25T12:17:21;14.00;99.90
30385;DHT22;17181;51.002;4.096;2024-03-25T12:20:03;14.00;99.90
30385;DHT22;17181;51.002;4.096;2024-03-25T12:22:40;14.10;99.90
30385;DHT22;17181;51.002;4.096;2024-03-25T12:25:19;14.00;99.90
30385;DHT22;17181;51.002;4.096;2024-03-25T12:27:47;14.00;99.90
30385;DHT22;17181;51.002;4.096;2024-03-25T12:30:19;14.10;99.90
30385;DHT22;17181;51.002;4.096;2024-03-25T12:32:53;14.20;99.90
30385;DHT22;17181;51.002;4.096;2024-03-25T12:35:20;14.10;99.90
30385;DHT22;17181;51.002;4.096;2024-03-25T12:37:49;14.20;99.90
30385;DHT22;17181;51.002;4.096;2024-03-25T12:40:26;14.20;99.90
30385;DHT22;17181;51.002;4.096;2024-03-25T13:30:23;15.80;99.90
30385;DHT22;17181;51.002;4.096;2024-03-25T13:32:50;15.90;99.90
30385;DHT22;17181;51.002;4.096;2024-03-25T13:35:16;16.00;99.90
30385;DHT22;17181;51.002;4.096;2024-03-25T13:37:42;16.10;99.90
30385;DHT22;17181;51.002;4.096;2024-03-25T13:40:09;16.10;99.90
30385;DHT22;17181;51.002;4.096;2024-03-25T13:42:35;16.20;99.90
30385;DHT22;17181;51.002;4.096;2024-03-25T13:45:01;16.20;99.90
30385;DHT22;17181;51.002;4.096;2024-03-25T13:47:27;16.30;99.90
30385;DHT22;17181;51.002;4.096;2024-03-25T13:50:06;16.70;99.90
30385;DHT22;17181;51.002;4.096;2024-03-25T13:52:36;17.50;99.90
30385;DHT22;17181;51.002;4.096;2024-03-25T13:55:03;18.30;99.90
30385;DHT22;17181;51.002;4.096;2024-03-25T13:57:29;19.10;99.90
30385;DHT22;17181;51.002;4.096;2024-03-25T13:59:55;19.70;99.90
30385;DHT22;17181;51.002;4.096;2024-03-25T14:02:23;20.30;99.90
30385;DHT22;17181;51.002;4.096;2024-03-25T14:04:49;20.90;99.90
30385;DHT22;17181;51.002;4.096;2024-03-25T14:07:15;21.30;99.90
30385;DHT22;17181;51.002;4.096;2024-03-25T14:09:42;21.60;99.90
30385;DHT22;17181;51.002;4.096;2024-03-25T14:12:11;21.80;99.90
30385;DHT22;17181;51.002;4.096;2024-03-25T14:14:37;22.10;99.10
30385;DHT22;17181;51.002;4.096;2024-03-25T14:17:03;22.30;98.30
30385;DHT22;17181;51.002;4.096;2024-03-25T14:19:29;22.30;97.90
30385;DHT22;17181;51.002;4.096;2024-03-25T14:21:55;22.40;97.30
30385;DHT22;17181;51.002;4.096;2024-03-25T14:24:25;22.60;96.20
30385;DHT22;17181;51.002;4.096;2024-03-25T14:26:51;22.70;95.60
30385;DHT22;17181;51.002;4.096;2024-03-25T14:29:19;22.80;91.50
30385;DHT22;17181;51.002;4.096;2024-03-25T14:31:45;22.60;91.00
30385;DHT22;17181;51.002;4.096;2024-03-25T14:34:11;22.50;91.70
30385;DHT22;17181;51.002;4.096;2024-03-25T14:36:37;22.50;91.20
30385;DHT22;17181;51.002;4.096;2024-03-25T14:39:03;22.50;90.60
30385;DHT22;17181;51.002;4.096;2024-03-25T14:41:39;22.50;90.30
30385;DHT22;17181;51.002;4.096;2024-03-25T14:44:04;22.60;89.20
30385;DHT22;17181;51.002;4.096;2024-03-25T14:46:30;22.60;88.40
30385;DHT22;17181;51.002;4.096;2024-03-25T14:48:56;22.80;87.90
30385;DHT22;17181;51.002;4.096;2024-03-25T14:51:22;22.80;86.30
30385;DHT22;17181;51.002;4.096;2024-03-25T14:53:48;22.80;84.70
30385;DHT22;17181;51.002;4.096;2024-03-25T14:56:14;22.80;83.90
30385;DHT22;17181;51.002;4.096;2024-03-25T14:58:40;22.70;83.00
30385;DHT22;17181;51.002;4.096;2024-03-25T15:01:06;22.70;83.10
30385;DHT22;17181;51.002;4.096;2024-03-25T15:03:32;22.80;82.10
30385;DHT22;17181;51.002;4.096;2024-03-25T15:05:58;22.80;81.70
30385;DHT22;17181;51.002;4.096;2024-03-25T15:08:24;22.80;80.50
30385;DHT22;17181;51.002;4.096;2024-03-25T15:10:50;22.70;79.50
30385;DHT22;17181;51.002;4.096;2024-03-25T15:13:16;22.50;78.50
30385;DHT22;17181;51.002;4.096;2024-03-25T15:15:41;22.40;78.00
30385;DHT22;17181;51.002;4.096;2024-03-25T15:18:10;22.10;77.40
30385;DHT22;17181;51.002;4.096;2024-03-25T15:20:36;22.00;77.00
30385;DHT22;17181;51.002;4.096;2024-03-25T15:23:01;21.80;76.30
30385;DHT22;17181;51.002;4.096;2024-03-25T15:25:28;21.60;76.10
30385;DHT22;17181;51.002;4.096;2024-03-25T15:27:54;21.30;75.60
30385;DHT22;17181;51.002;4.096;2024-03-25T15:30:20;21.20;76.10
30385;DHT22;17181;51.002;4.096;2024-03-25T15:32:47;21.30;76.40
30385;DHT22;17181;51.002;4.096;2024-03-25T15:35:13;21.40;75.90
30385;DHT22;17181;51.002;4.096;2024-03-25T15:37:39;21.20;75.00
30385;DHT22;17181;51.002;4.096;2024-03-25T15:40:05;21.10;74.70
30385;DHT22;17181;51.002;4.096;2024-03-25T15:42:36;20.90;74.30
30385;DHT22;17181;51.002;4.096;2024-03-25T15:45:02;20.80;74.20
30385;DHT22;17181;51.002;4.096;2024-03-25T15:47:28;20.50;73.80
30385;DHT22;17181;51.002;4.096;2024-03-25T15:49:53;20.40;73.70
30385;DHT22;17181;51.002;4.096;2024-03-25T15:52:19;20.20;73.70
30385;DHT22;17181;51.002;4.096;2024-03-25T15:54:45;20.10;73.40
30385;DHT22;17181;51.002;4.096;2024-03-25T15:57:11;19.90;73.30
30385;DHT22;17181;51.002;4.096;2024-03-25T15:59:36;19.70;73.00
30385;DHT22;17181;51.002;4.096;2024-03-25T16:02:02;19.60;72.90
30385;DHT22;17181;51.002;4.096;2024-03-25T16:04:29;19.40;72.60
30385;DHT22;17181;51.002;4.096;2024-03-25T16:06:55;19.20;72.70
30385;DHT22;17181;51.002;4.096;2024-03-25T16:09:21;19.10;73.00
30385;DHT22;17181;51.002;4.096;2024-03-25T16:11:47;19.00;72.90
30385;DHT22;17181;51.002;4.096;2024-03-25T16:14:12;18.90;73.20
30385;DHT22;17181;51.002;4.096;2024-03-25T16:16:41;18.90;73.20
30385;DHT22;17181;51.002;4.096;2024-03-25T16:19:07;18.90;72.50
30385;DHT22;17181;51.002;4.096;2024-03-25T16:21:33;18.70;72.30
30385;DHT22;17181;51.002;4.096;2024-03-25T16:23:59;18.70;72.40
30385;DHT22;17181;51.002;4.096;2024-03-25T16:26:24;18.50;72.40
30385;DHT22;17181;51.002;4.096;2024-03-25T16:28:50;18.30;72.30
30385;DHT22;17181;51.002;4.096;2024-03-25T16:31:18;18.20;72.60
30385;DHT22;17181;51.002;4.096;2024-03-25T16:33:44;18.00;72.80
30385;DHT22;17181;51.002;4.096;2024-03-25T16:36:09;17.80;73.00
30385;DHT22;17181;51.002;4.096;2024-03-25T16:38:35;17.60;73.10
30385;DHT22;17181;51.002;4.096;2024-03-25T16:41:01;17.50;73.50
30385;DHT22;17181;51.002;4.096;2024-03-25T16:43:27;17.40;73.90
30385;DHT22;17181;51.002;4.096;2024-03-25T16:45:53;17.20;74.00
30385;DHT22;17181;51.002;4.096;2024-03-25T16:48:18;17.10;74.40
30385;DHT22;17181;51.002;4.096;2024-03-25T16:50:45;16.90;74.50
30385;DHT22;17181;51.002;4.096;2024-03-25T16:53:11;16.80;74.70
30385;DHT22;17181;51.002;4.096;2024-03-25T16:55:39;16.60;75.20
30385;DHT22;17181;51.002;4.096;2024-03-25T16:58:05;16.50;75.40
30385;DHT22;17181;51.002;4.096;2024-03-25T17:00:30;16.40;75.40
30385;DHT22;17181;51.002;4.096;2024-03-25T17:02:56;16.20;75.30
30385;DHT22;17181;51.002;4.096;2024-03-25T17:05:22;16.00;75.20
30385;DHT22;17181;51.002;4.096;2024-03-25T17:07:48;15.90;75.40
30385;DHT22;17181;51.002;4.096;2024-03-25T17:10:13;15.70;75.40
30385;DHT22;17181;51.002;4.096;2024-03-25T17:12:39;15.50;75.40
30385;DHT22;17181;51.002;4.096;2024-03-25T17:15:05;15.40;75.50
30385;DHT22;17181;51.002;4.096;2024-03-25T17:17:31;15.30;75.70
30385;DHT22;17181;51.002;4.096;2024-03-25T17:20:02;15.20;75.80
30385;DHT22;17181;51.002;4.096;2024-03-25T17:22:29;15.00;75.90
30385;DHT22;17181;51.002;4.096;2024-03-25T17:24:54;14.90;76.80
30385;DHT22;17181;51.002;4.096;2024-03-25T17:27:20;14.80;76.30
30385;DHT22;17181;51.002;4.096;2024-03-25T17:29:49;14.70;76.50
30385;DHT22;17181;51.002;4.096;2024-03-25T17:32:15;14.60;76.60
30385;DHT22;17181;51.002;4.096;2024-03-25T17:34:41;14.50;76.70
30385;DHT22;17181;51.002;4.096;2024-03-25T17:37:07;14.40;76.70
30385;DHT22;17181;51.002;4.096;2024-03-25T17:39:33;14.30;76.80
30385;DHT22;17181;51.002;4.096;2024-03-25T17:42:01;14.20;76.80
30385;DHT22;17181;51.002;4.096;2024-03-25T17:44:27;14.00;76.80
30385;DHT22;17181;51.002;4.096;2024-03-25T17:46:53;13.90;76.80
30385;DHT22;17181;51.002;4.096;2024-03-25T17:49:20;13.90;77.00
30385;DHT22;17181;51.002;4.096;2024-03-25T17:51:45;13.80;77.10
30385;DHT22;17181;51.002;4.096;2024-03-25T17:54:11;13.70;77.20
30385;DHT22;17181;51.002;4.096;2024-03-25T17:56:37;13.60;77.40
30385;DHT22;17181;51.002;4.096;2024-03-25T17:59:03;13.60;77.60
30385;DHT22;17181;51.002;4.096;2024-03-25T18:01:28;13.40;77.80
30385;DHT22;17181;51.002;4.096;2024-03-25T18:03:54;13.40;78.00
30385;DHT22;17181;51.002;4.096;2024-03-25T18:06:20;13.30;78.30
30385;DHT22;17181;51.002;4.096;2024-03-25T18:08:46;13.20;78.50
30385;DHT22;17181;51.002;4.096;2024-03-25T18:11:11;13.20;78.80
30385;DHT22;17181;51.002;4.096;2024-03-25T18:13:38;13.10;79.10
30385;DHT22;17181;51.002;4.096;2024-03-25T18:16:04;13.00;79.40
30385;DHT22;17181;51.002;4.096;2024-03-25T18:18:29;12.90;79.60
30385;DHT22;17181;51.002;4.096;2024-03-25T18:20:55;12.90;79.90
30385;DHT22;17181;51.002;4.096;2024-03-25T18:23:21;12.80;80.10
30385;DHT22;17181;51.002;4.096;2024-03-25T18:25:47;12.70;80.30
30385;DHT22;17181;51.002;4.096;2024-03-25T18:28:14;12.70;80.60
30385;DHT22;17181;51.002;4.096;2024-03-25T18:30:40;12.60;80.80
30385;DHT22;17181;51.002;4.096;2024-03-25T18:33:07;12.60;81.00
30385;DHT22;17181;51.002;4.096;2024-03-25T18:35:39;12.50;81.30
30385;DHT22;17181;51.002;4.096;2024-03-25T18:38:06;12.40;81.50
30385;DHT22;17181;51.002;4.096;2024-03-25T18:40:32;12.40;81.60
30385;DHT22;17181;51.002;4.096;2024-03-25T18:42:58;12.30;81.80
30385;DHT22;17181;51.002;4.096;2024-03-25T18:45:24;12.20;82.00
30385;DHT22;17181;51.002;4.096;2024-03-25T18:47:50;12.20;82.20
30385;DHT22;17181;51.002;4.096;2024-03-25T18:50:16;12.10;82.30
30385;DHT22;17181;51.002;4.096;2024-03-25T18:52:41;12.10;82.50
30385;DHT22;17181;51.002;4.096;2024-03-25T18:55:07;12.10;82.70
30385;DHT22;17181;51.002;4.096;2024-03-25T18:57:33;12.00;82.90
30385;DHT22;17181;51.002;4.096;2024-03-25T18:59:59;11.90;83.00
30385;DHT22;17181;51.002;4.096;2024-03-25T19:02:25;12.00;83.20
30385;DHT22;17181;51.002;4.096;2024-03-25T19:04:51;11.80;83.30
30385;DHT22;17181;51.002;4.096;2024-03-25T19:07:17;11.80;83.40
30385;DHT22;17181;51.002;4.096;2024-03-25T19:09:42;11.80;83.60
30385;DHT22;17181;51.002;4.096;2024-03-25T19:12:08;11.70;83.60
30385;DHT22;17181;51.002;4.096;2024-03-25T19:14:34;11.70;83.80
30385;DHT22;17181;51.002;4.096;2024-03-25T19:17:00;11.60;83.80
30385;DHT22;17181;51.002;4.096;2024-03-25T19:19:26;11.60;83.90
30385;DHT22;17181;51.002;4.096;2024-03-25T19:21:51;11.60;84.10
30385;DHT22;17181;51.002;4.096;2024-03-25T19:24:18;11.50;84.20
30385;DHT22;17181;51.002;4.096;2024-03-25T19:26:43;11.50;84.50
30385;DHT22;17181;51.002;4.096;2024-03-25T19:29:09;11.40;84.70
30385;DHT22;17181;51.002;4.096;2024-03-25T19:31:35;11.30;84.80
30385;DHT22;17181;51.002;4.096;2024-03-25T19:34:00;11.30;85.00
30385;DHT22;17181;51.002;4.096;2024-03-25T19:36:26;11.20;85.10
30385;DHT22;17181;51.002;4.096;2024-03-25T19:38:52;11.20;85.30
30385;DHT22;17181;51.002;4.096;2024-03-25T19:41:20;11.20;85.50
30385;DHT22;17181;51.002;4.096;2024-03-25T19:43:45;11.10;85.60
30385;DHT22;17181;51.002;4.096;2024-03-25T19:46:11;11.10;85.70
30385;DHT22;17181;51.002;4.096;2024-03-25T19:48:37;11.10;85.80
30385;DHT22;17181;51.002;4.096;2024-03-25T19:51:04;11.10;86.00
30385;DHT22;17181;51.002;4.096;2024-03-25T19:53:30;11.00;86.10
30385;DHT22;17181;51.002;4.096;2024-03-25T19:55:59;11.00;86.20
30385;DHT22;17181;51.002;4.096;2024-03-25T19:58:25;10.90;86.40
30385;DHT22;17181;51.002;4.096;2024-03-25T20:00:52;10.90;86.50
30385;DHT22;17181;51.002;4.096;2024-03-25T20:03:20;10.90;86.60
30385;DHT22;17181;51.002;4.096;2024-03-25T20:05:47;10.90;86.70
30385;DHT22;17181;51.002;4.096;2024-03-25T20:08:13;10.90;86.90
30385;DHT22;17181;51.002;4.096;2024-03-25T20:10:39;10.80;87.00
30385;DHT22;17181;51.002;4.096;2024-03-25T20:13:04;10.80;87.10
30385;DHT22;17181;51.002;4.096;2024-03-25T20:15:31;10.80;87.30
30385;DHT22;17181;51.002;4.096;2024-03-25T20:17:58;10.70;87.30
30385;DHT22;17181;51.002;4.096;2024-03-25T20:20:23;10.70;87.50
30385;DHT22;17181;51.002;4.096;2024-03-25T20:22:49;10.70;87.60
30385;DHT22;17181;51.002;4.096;2024-03-25T20:25:16;10.70;87.80
30385;DHT22;17181;51.002;4.096;2024-03-25T20:27:42;10.70;88.00
30385;DHT22;17181;51.002;4.096;2024-03-25T20:30:08;10.70;88.20
30385;DHT22;17181;51.002;4.096;2024-03-25T20:32:34;10.60;88.30
30385;DHT22;17181;51.002;4.096;2024-03-25T20:35:00;10.60;88.40
30385;DHT22;17181;51.002;4.096;2024-03-25T20:37:29;10.60;88.50
30385;DHT22;17181;51.002;4.096;2024-03-25T20:39:55;10.60;88.70
30385;DHT22;17181;51.002;4.096;2024-03-25T20:42:22;10.50;88.70
30385;DHT22;17181;51.002;4.096;2024-03-25T20:44:47;10.50;88.90
30385;DHT22;17181;51.002;4.096;2024-03-25T20:47:13;10.50;89.00
30385;DHT22;17181;51.002;4.096;2024-03-25T20:49:39;10.50;89.10
30385;DHT22;17181;51.002;4.096;2024-03-25T20:52:05;10.50;89.20
30385;DHT22;17181;51.002;4.096;2024-03-25T20:54:31;10.40;89.20
30385;DHT22;17181;51.002;4.096;2024-03-25T20:56:57;10.40;89.40
30385;DHT22;17181;51.002;4.096;2024-03-25T20:59:23;10.40;89.50
30385;DHT22;17181;51.002;4.096;2024-03-25T21:01:49;10.40;89.60
30385;DHT22;17181;51.002;4.096;2024-03-25T21:04:15;10.30;89.70
30385;DHT22;17181;51.002;4.096;2024-03-25T21:06:40;10.30;89.80
30385;DHT22;17181;51.002;4.096;2024-03-25T21:09:07;10.30;89.90
30385;DHT22;17181;51.002;4.096;2024-03-25T21:11:34;10.30;90.00
30385;DHT22;17181;51.002;4.096;2024-03-25T21:13:59;10.30;90.00
30385;DHT22;17181;51.002;4.096;2024-03-25T21:16:25;10.20;90.00
30385;DHT22;17181;51.002;4.096;2024-03-25T21:18:51;10.20;90.10
30385;DHT22;17181;51.002;4.096;2024-03-25T21:21:17;10.20;90.20
30385;DHT22;17181;51.002;4.096;2024-03-25T21:23:46;10.20;90.20
30385;DHT22;17181;51.002;4.096;2024-03-25T21:26:11;10.20;90.30
30385;DHT22;17181;51.002;4.096;2024-03-25T21:28:38;10.10;90.30
30385;DHT22;17181;51.002;4.096;2024-03-25T21:31:04;10.20;90.40
30385;DHT22;17181;51.002;4.096;2024-03-25T21:33:30;10.20;90.50
30385;DHT22;17181;51.002;4.096;2024-03-25T21:35:55;10.10;90.50
30385;DHT22;17181;51.002;4.096;2024-03-25T21:38:21;10.10;90.60
30385;DHT22;17181;51.002;4.096;2024-03-25T21:40:47;10.10;90.70
30385;DHT22;17181;51.002;4.096;2024-03-25T21:43:13;10.10;90.80
30385;DHT22;17181;51.002;4.096;2024-03-25T21:45:39;10.10;90.80
30385;DHT22;17181;51.002;4.096;2024-03-25T21:48:06;10.10;90.90
30385;DHT22;17181;51.002;4.096;2024-03-25T21:50:32;10.10;90.90
30385;DHT22;17181;51.002;4.096;2024-03-25T21:52:57;10.10;91.00
30385;DHT22;17181;51.002;4.096;2024-03-25T21:55:25;10.10;91.10
30385;DHT22;17181;51.002;4.096;2024-03-25T21:57:51;10.00;91.10
30385;DHT22;17181;51.002;4.096;2024-03-25T22:00:17;10.00;91.20
30385;DHT22;17181;51.002;4.096;2024-03-25T22:02:44;10.00;91.20
30385;DHT22;17181;51.002;4.096;2024-03-25T22:05:10;10.00;91.30
30385;DHT22;17181;51.002;4.096;2024-03-25T22:07:36;10.00;91.40
30385;DHT22;17181;51.002;4.096;2024-03-25T22:10:02;9.90;91.40
30385;DHT22;17181;51.002;4.096;2024-03-25T22:12:28;9.90;91.50
30385;DHT22;17181;51.002;4.096;2024-03-25T22:14:53;9.90;91.50
30385;DHT22;17181;51.002;4.096;2024-03-25T22:17:19;9.80;91.60
30385;DHT22;17181;51.002;4.096;2024-03-25T22:19:45;9.80;91.70
30385;DHT22;17181;51.002;4.096;2024-03-25T22:22:11;9.80;91.80
30385;DHT22;17181;51.002;4.096;2024-03-25T22:24:37;9.80;91.80
30385;DHT22;17181;51.002;4.096;2024-03-25T22:27:04;9.70;91.90
30385;DHT22;17181;51.002;4.096;2024-03-25T22:29:30;9.70;92.00
30385;DHT22;17181;51.002;4.096;2024-03-25T22:31:55;9.70;92.00
30385;DHT22;17181;51.002;4.096;2024-03-25T22:34:21;9.70;92.10
30385;DHT22;17181;51.002;4.096;2024-03-25T22:36:47;9.70;92.20
30385;DHT22;17181;51.002;4.096;2024-03-25T22:39:13;9.70;92.30
30385;DHT22;17181;51.002;4.096;2024-03-25T22:41:39;9.60;92.30
30385;DHT22;17181;51.002;4.096;2024-03-25T22:44:04;9.60;92.30
30385;DHT22;17181;51.002;4.096;2024-03-25T22:46:30;9.60;92.50
30385;DHT22;17181;51.002;4.096;2024-03-25T22:48:56;9.50;92.50
30385;DHT22;17181;51.002;4.096;2024-03-25T22:51:24;9.50;92.50
30385;DHT22;17181;51.002;4.096;2024-03-25T22:53:50;9.50;92.60
30385;DHT22;17181;51.002;4.096;2024-03-25T22:56:16;9.50;92.70
30385;DHT22;17181;51.002;4.096;2024-03-25T22:58:41;9.40;92.70
30385;DHT22;17181;51.002;4.096;2024-03-25T23:01:09;9.40;92.80
30385;DHT22;17181;51.002;4.096;2024-03-25T23:03:35;9.40;92.90
30385;DHT22;17181;51.002;4.096;2024-03-25T23:06:03;9.40;92.90
30385;DHT22;17181;51.002;4.096;2024-03-25T23:08:29;9.40;93.00
30385;DHT22;17181;51.002;4.096;2024-03-25T23:10:56;9.40;93.00
30385;DHT22;17181;51.002;4.096;2024-03-25T23:13:22;9.40;93.10
30385;DHT22;17181;51.002;4.096;2024-03-25T23:15:48;9.40;93.10
30385;DHT22;17181;51.002;4.096;2024-03-25T23:18:15;9.40;93.20
30385;DHT22;17181;51.002;4.096;2024-03-25T23:20:42;9.40;93.20
30385;DHT22;17181;51.002;4.096;2024-03-25T23:23:09;9.30;93.20
30385;DHT22;17181;51.002;4.096;2024-03-25T23:25:39;9.30;93.30
30385;DHT22;17181;51.002;4.096;2024-03-25T23:28:05;9.30;93.30
30385;DHT22;17181;51.002;4.096;2024-03-25T23:30:31;9.30;93.40
30385;DHT22;17181;51.002;4.096;2024-03-25T23:32:57;9.30;93.40
30385;DHT22;17181;51.002;4.096;2024-03-25T23:35:23;9.30;93.40
30385;DHT22;17181;51.002;4.096;2024-03-25T23:37:49;9.30;93.50
30385;DHT22;17181;51.002;4.096;2024-03-25T23:40:15;9.30;93.50
30385;DHT22;17181;51.002;4.096;2024-03-25T23:42:45;9.30;93.50
30385;DHT22;17181;51.002;4.096;2024-03-25T23:45:11;9.30;93.60
30385;DHT22;17181;51.002;4.096;2024-03-25T23:47:37;9.20;93.60
30385;DHT22;17181;51.002;4.096;2024-03-25T23:50:03;9.20;93.70
30385;DHT22;17181;51.002;4.096;2024-03-25T23:52:31;9.20;93.70
30385;DHT22;17181;51.002;4.096;2024-03-25T23:54:57;9.20;93.70
30385;DHT22;17181;51.002;4.096;2024-03-25T23:57:23;9.20;93.80
30385;DHT22;17181;51.002;4.096;2024-03-25T23:59:49;9.20;93.80
